Skip Navigation LinksHome page > Weather > Current weather Skip Navigation Links

Current Weather

Albert Whitted, St Petersburg, Fla.

For information only: do not use for flight planning or navigation.
Latest weather
Observation time Sunday, August 1, 2021 4:53 AM EDT
Local time Sunday, August 1, 2021 5:47 AM EDT
Flight conditions Visual Meteorological Conditions
Winds
Wind direction West (260°)
Wind speed 6 mph
Visibility 10 mi.
Sky condition
Ceiling unlimited
Sky clear
Temperature 83°F
Dewpoint 77°F
Altimeter 30.00 in.Hg
Pressure change last 3 hours0.03 in.Hg
Pressure falling more slowly
Precipitation
Precipitation last 3 hours 0.12 in.
Derived measurements
Relative humidity 82%
Heat index 92°F
Density altitude 1869 ft.
Sea-level pressure 30.00 in.Hg
Remarks
Fully automated report.
Automated weather observing station with precipitation discriminator.
METAR KSPG 010853Z AUTO 26005KT 10SM CLR 28/25 A3000 RMK AO2 SLP159 60012 T02830250 56011

Settings

Location code

InnerDrive.Weather 4.0.6770.0 Release CLR 4.0.30319.42000
Copyright ©2018 Inner Drive Technology. All rights reserved. Portions Copyright ©1986-2018 David Braverman.

Find weather

Site navigation


Skip Navigation Links

Place info

Page info

PayPal - The safer, easier way to pay online!

Return home.

Copyright ©2021 Inner Drive Technology. Purveyors of fine, hand-crafted computer software. Page printed 2021-08-01T09:47:20 UTC.